Ofertas de vuelos a Natal

Encontranos en
En el mes de
SalidaRegresoDíasConexionesDisp.
Sab 07/03/20202020-03-07Dom 15/03/20202020-03-158ConexionesVer disponibilidad>03https://an.despegar.com/ad/1040?q=shop%2Fflights%2Fresults%2Froundtrip%2FBUE%2FNAT%2F2020-03-07%2F2020-03-15%2F1%2F0%2F0
Lun 09/03/20202020-03-09Lun 16/03/20202020-03-167ConexionesVer disponibilidad>03https://an.despegar.com/ad/1040?q=shop%2Fflights%2Fresults%2Froundtrip%2FBUE%2FNAT%2F2020-03-09%2F2020-03-16%2F1%2F0%2F0
Mar 10/03/20202020-03-10Mie 18/03/20202020-03-188ConexionesVer disponibilidad>03https://an.despegar.com/ad/1040?q=shop%2Fflights%2Fresults%2Froundtrip%2FBUE%2FNAT%2F2020-03-10%2F2020-03-18%2F1%2F0%2F0
Mar 17/03/20202020-03-17Mie 25/03/20202020-03-258ConexionesVer disponibilidad>03https://an.despegar.com/ad/1040?q=shop%2Fflights%2Fresults%2Froundtrip%2FBUE%2FNAT%2F2020-03-17%2F2020-03-25%2F1%2F0%2F0
Jue 19/03/20202020-03-19Sab 28/03/20202020-03-289ConexionesVer disponibilidad>03https://an.despegar.com/ad/1040?q=shop%2Fflights%2Fresults%2Froundtrip%2FBUE%2FNAT%2F2020-03-19%2F2020-03-28%2F1%2F0%2F0
Vie 20/03/20202020-03-20Sab 28/03/20202020-03-288ConexionesVer disponibilidad>03https://an.despegar.com/ad/1040?q=shop%2Fflights%2Fresults%2Froundtrip%2FBUE%2FNAT%2F2020-03-20%2F2020-03-28%2F1%2F0%2F0
Vie 20/03/20202020-03-20Sab 04/04/20202020-04-0415ConexionesVer disponibilidad>03https://an.despegar.com/ad/1040?q=shop%2Fflights%2Fresults%2Froundtrip%2FBUE%2FNAT%2F2020-03-20%2F2020-04-04%2F1%2F0%2F0
Vie 20/03/20202020-03-20Lun 30/03/20202020-03-3010ConexionesVer disponibilidad>03https://an.despegar.com/ad/1040?q=shop%2Fflights%2Fresults%2Froundtrip%2FBUE%2FNAT%2F2020-03-20%2F2020-03-30%2F1%2F0%2F0
Vie 20/03/20202020-03-20Dom 29/03/20202020-03-299ConexionesVer disponibilidad>03https://an.despegar.com/ad/1040?q=shop%2Fflights%2Fresults%2Froundtrip%2FBUE%2FNAT%2F2020-03-20%2F2020-03-29%2F1%2F0%2F0
Sab 21/03/20202020-03-21Dom 29/03/20202020-03-298ConexionesVer disponibilidad>03https://an.despegar.com/ad/1040?q=shop%2Fflights%2Fresults%2Froundtrip%2FBUE%2FNAT%2F2020-03-21%2F2020-03-29%2F1%2F0%2F0
Sab 21/03/20202020-03-21Sab 04/04/20202020-04-0414ConexionesVer disponibilidad>03https://an.despegar.com/ad/1040?q=shop%2Fflights%2Fresults%2Froundtrip%2FBUE%2FNAT%2F2020-03-21%2F2020-04-04%2F1%2F0%2F0
Lun 23/03/20202020-03-23Jue 02/04/20202020-04-0210ConexionesVer disponibilidad>03https://an.despegar.com/ad/1040?q=shop%2Fflights%2Fresults%2Froundtrip%2FBUE%2FNAT%2F2020-03-23%2F2020-04-02%2F1%2F0%2F0
Mar 24/03/20202020-03-24Mar 31/03/20202020-03-317ConexionesVer disponibilidad>03https://an.despegar.com/ad/1040?q=shop%2Fflights%2Fresults%2Froundtrip%2FBUE%2FNAT%2F2020-03-24%2F2020-03-31%2F1%2F0%2F0
Mie 25/03/20202020-03-25Vie 03/04/20202020-04-039ConexionesVer disponibilidad>03https://an.despegar.com/ad/1040?q=shop%2Fflights%2Fresults%2Froundtrip%2FBUE%2FNAT%2F2020-03-25%2F2020-04-03%2F1%2F0%2F0
Vie 27/03/20202020-03-27Sab 04/04/20202020-04-048ConexionesVer disponibilidad>03https://an.despegar.com/ad/1040?q=shop%2Fflights%2Fresults%2Froundtrip%2FBUE%2FNAT%2F2020-03-27%2F2020-04-04%2F1%2F0%2F0
Jue 16/04/20202020-04-16Vie 01/05/20202020-05-0115ConexionesVer disponibilidad>04https://an.despegar.com/ad/1040?q=shop%2Fflights%2Fresults%2Froundtrip%2FBUE%2FNAT%2F2020-04-16%2F2020-05-01%2F1%2F0%2F0
Mar 26/05/20202020-05-26Mar 09/06/20202020-06-0914ConexionesVer disponibilidad>05https://an.despegar.com/ad/1040?q=shop%2Fflights%2Fresults%2Froundtrip%2FBUE%2FNAT%2F2020-05-26%2F2020-06-09%2F1%2F0%2F0
Mie 27/05/20202020-05-27Lun 15/06/20202020-06-1519ConexionesVer disponibilidad>05https://an.despegar.com/ad/1040?q=shop%2Fflights%2Fresults%2Froundtrip%2FBUE%2FNAT%2F2020-05-27%2F2020-06-15%2F1%2F0%2F0
Mie 27/05/20202020-05-27Mie 03/06/20202020-06-037ConexionesVer disponibilidad>05https://an.despegar.com/ad/1040?q=shop%2Fflights%2Fresults%2Froundtrip%2FBUE%2FNAT%2F2020-05-27%2F2020-06-03%2F1%2F0%2F0
Lun 14/09/20202020-09-14Lun 21/09/20202020-09-217ConexionesVer disponibilidad>09https://an.despegar.com/ad/1040?q=shop%2Fflights%2Fresults%2Froundtrip%2FBUE%2FNAT%2F2020-09-14%2F2020-09-21%2F1%2F0%2F0
Sab 19/09/20202020-09-19Sab 26/09/20202020-09-267ConexionesVer disponibilidad>09https://an.despegar.com/ad/1040?q=shop%2Fflights%2Fresults%2Froundtrip%2FBUE%2FNAT%2F2020-09-19%2F2020-09-26%2F1%2F0%2F0
Sab 19/09/20202020-09-19Lun 28/09/20202020-09-289ConexionesVer disponibilidad>09https://an.despegar.com/ad/1040?q=shop%2Fflights%2Fresults%2Froundtrip%2FBUE%2FNAT%2F2020-09-19%2F2020-09-28%2F1%2F0%2F0

Información general sobre Natal

Natal, que en español significa Navidad, es una ciudad brasileña localizada en el estado de Rio Grande do Norte. Atravesada por el río Potengi, la capital nordestina cuenta con playas, dunas y diferentes atracciones históricas. Anualmente recibe a dos millones de turistas y es la puerta de entrada hacia otros importantes destinos del estado.

Pasajes Aéreos y Vuelos Baratos a Natal

Descargá gratis nuestra nueva app para Android y iOS.
Suscribite a las notificaciones de Chrome y Safari.
Seguinos en Facebook, Twitter e Instagram
Suscribite a nuestro newsletter aquí.